Time;durP1;ratioP1;P1;durP2;ratioP2;P2;SDS_P1;SDS_P2;PMS_P1;PMS_P2;Temp;Humidity;BMP_temperature;BMP_pressure;BME280_temperature;BME280_humidity;BME280_pressure;Samples;Min_cycle;Max_cycle;Signal;HPM_P1;HPM_P2
2023/10/10 00:02:18;;;;;;;13.93;7.63;;;13.60;99.90;;;;;;5010959;28;20793;-55
2023/10/10 00:04:48;;;;;;;19.65;7.70;;;13.60;99.90;;;;;;5011153;28;20037;-55
2023/10/10 00:07:14;;;;;;;22.00;7.97;;;13.60;99.90;;;;;;5010886;28;20101;-56
2023/10/10 00:09:44;;;;;;;13.88;7.90;;;13.60;99.90;;;;;;5010791;28;20026;-47
2023/10/10 00:12:17;;;;;;;17.13;8.07;;;13.60;99.90;;;;;;5010810;28;20022;-50
2023/10/10 00:14:42;;;;;;;20.17;8.18;;;13.50;99.90;;;;;;5010703;28;20557;-51
2023/10/10 00:17:09;;;;;;;16.10;7.65;;;13.50;99.90;;;;;;5010808;28;20033;-48
2023/10/10 00:19:45;;;;;;;18.23;7.85;;;13.50;99.90;;;;;;5024441;28;20068;-47
2023/10/10 00:22:11;;;;;;;18.98;9.15;;;13.50;99.90;;;;;;5010469;28;20475;-50
2023/10/10 00:24:37;;;;;;;15.85;8.05;;;13.50;99.90;;;;;;5010256;28;20033;-54
2023/10/10 00:27:23;;;;;;;15.85;8.50;;;13.50;99.90;;;;;;5010868;28;20068;-49
2023/10/10 00:29:49;;;;;;;15.43;7.85;;;13.50;99.90;;;;;;5024098;28;20025;-52
2023/10/10 00:32:22;;;;;;;15.05;8.20;;;13.50;99.90;;;;;;5012452;28;20064;-57
2023/10/10 00:34:48;;;;;;;16.15;8.13;;;13.40;99.90;;;;;;5049705;28;20037;-59
2023/10/10 00:37:16;;;;;;;17.08;8.05;;;13.50;99.90;;;;;;5050337;28;20025;-52
2023/10/10 00:39:52;;;;;;;18.65;8.60;;;13.50;99.90;;;;;;5049926;28;20029;-50
2023/10/10 00:42:36;;;;;;;18.33;8.45;;;13.50;99.90;;;;;;5049961;28;20489;-50
2023/10/10 00:45:09;;;;;;;19.42;8.73;;;13.50;99.90;;;;;;5049946;28;20025;-49
2023/10/10 00:47:41;;;;;;;17.52;8.32;;;13.40;99.90;;;;;;5050141;28;20026;-49
2023/10/10 00:50:08;;;;;;;14.07;7.55;;;13.30;99.90;;;;;;5050013;28;20029;-56
2023/10/10 00:52:36;;;;;;;17.58;8.93;;;13.40;99.90;;;;;;5050087;28;20063;-53
2023/10/10 00:55:04;;;;;;;17.17;9.23;;;13.30;99.90;;;;;;5049943;28;20069;-55
2023/10/10 00:57:35;;;;;;;15.00;8.30;;;13.30;99.90;;;;;;5049844;28;20033;-50
2023/10/10 01:00:10;;;;;;;16.02;7.88;;;13.20;99.90;;;;;;5049566;28;20040;-48
2023/10/10 01:02:37;;;;;;;19.33;7.45;;;13.20;99.90;;;;;;5049806;28;20083;-47
2023/10/10 01:05:13;;;;;;;20.85;8.32;;;13.20;99.90;;;;;;5049904;28;20563;-50
2023/10/10 01:07:40;;;;;;;16.88;7.53;;;13.10;99.90;;;;;;5049629;28;20500;-48
2023/10/10 01:10:12;;;;;;;15.30;6.90;;;13.10;99.90;;;;;;5049814;28;20029;-49
2023/10/10 01:12:40;;;;;;;15.02;6.50;;;13.10;99.90;;;;;;5049848;28;20064;-46
2023/10/10 01:15:14;;;;;;;19.55;7.85;;;13.00;99.90;;;;;;5049837;28;20044;-50
2023/10/10 01:17:44;;;;;;;12.48;6.03;;;13.00;99.90;;;;;;5049774;28;20033;-46
2023/10/10 01:20:56;;;;;;;13.50;6.78;;;12.90;99.90;;;;;;5055194;28;20040;-48
2023/10/10 01:22:57;;;;;;;15.13;6.80;;;12.90;99.90;;;;;;5035412;28;20112;-46
2023/10/10 01:28:22;;;;;;;13.45;6.50;;;12.90;99.90;;;;;;5049630;28;20056;-46
2023/10/10 01:33:24;;;;;;;12.75;6.28;;;12.80;99.90;;;;;;5049545;28;20076;-46
2023/10/10 01:35:55;;;;;;;15.00;6.30;;;12.80;99.90;;;;;;5049751;28;20037;-46
2023/10/10 01:38:27;;;;;;;16.40;6.50;;;12.90;99.90;;;;;;5034739;28;20021;-53
2023/10/10 01:40:54;;;;;;;14.35;7.22;;;12.90;99.90;;;;;;5052947;28;20029;-56
2023/10/10 01:43:20;;;;;;;16.42;6.72;;;12.90;99.90;;;;;;5053167;28;20032;-54
2023/10/10 01:46:00;;;;;;;14.93;6.47;;;12.90;99.90;;;;;;5052779;28;20021;-46
2023/10/10 01:48:25;;;;;;;;;;;12.90;99.90;;;;;;5053649;28;20025;-47
2023/10/10 01:50:51;;;;;;;11.60;6.00;;;12.80;99.90;;;;;;5052562;28;19912;-53
2023/10/10 01:53:16;;;;;;;13.13;5.90;;;12.80;99.90;;;;;;5052937;28;20025;-60
2023/10/10 01:55:42;;;;;;;10.80;5.50;;;12.80;99.90;;;;;;5052693;28;20033;-55
2023/10/10 01:58:12;;;;;;;10.98;5.88;;;12.80;99.90;;;;;;5052657;28;20021;-47
2023/10/10 02:00:37;;;;;;;;;;;12.80;99.90;;;;;;5053336;28;20024;-47
2023/10/10 02:03:03;;;;;;;11.55;6.28;;;12.90;99.90;;;;;;5052558;28;19938;-46
2023/10/10 02:08:04;;;;;;;13.43;7.20;;;12.90;99.90;;;;;;5052557;28;20025;-52
2023/10/10 02:10:30;;;;;;;10.80;6.07;;;13.00;99.90;;;;;;5052426;28;20036;-56
2023/10/10 02:13:00;;;;;;;13.73;6.93;;;12.90;99.90;;;;;;5052182;28;20037;-58
2023/10/10 02:15:32;;;;;;;13.77;6.40;;;12.90;99.90;;;;;;5060109;28;20037;-53
2023/10/10 02:18:04;;;;;;;13.63;6.95;;;12.90;99.90;;;;;;5072169;28;20485;-47
2023/10/10 02:20:49;;;;;;;12.20;7.07;;;12.90;99.90;;;;;;5035690;28;20037;-48
2023/10/10 02:23:36;;;;;;;13.77;6.93;;;12.90;99.90;;;;;;5065147;28;20028;-54
2023/10/10 02:26:07;;;;;;;11.90;7.25;;;12.80;99.90;;;;;;5063834;28;20033;-53
2023/10/10 02:29:16;;;;;;;13.02;6.63;;;12.80;99.90;;;;;;5069288;28;20497;-55
2023/10/10 02:31:19;;;;;;;12.32;6.60;;;12.80;99.90;;;;;;5062130;28;20051;-52
2023/10/10 02:33:48;;;;;;;13.15;6.75;;;12.80;99.90;;;;;;5071547;28;20056;-52
2023/10/10 02:36:16;;;;;;;11.82;6.40;;;12.70;99.90;;;;;;5071997;28;20016;-56
2023/10/10 02:39:02;;;;;;;11.20;6.32;;;12.60;99.90;;;;;;5068576;28;20036;-58
2023/10/10 02:41:38;;;;;;;8.60;5.07;;;12.60;99.90;;;;;;5069322;28;20497;-51
2023/10/10 02:44:05;;;;;;;10.13;5.25;;;12.60;99.90;;;;;;5066964;28;20047;-52
2023/10/10 02:46:37;;;;;;;10.77;5.68;;;12.60;99.90;;;;;;5057575;28;20028;-53
2023/10/10 02:49:22;;;;;;;13.50;5.68;;;12.50;99.90;;;;;;5047331;28;20115;-52
2023/10/10 02:51:48;;;;;;;12.63;6.18;;;12.40;99.90;;;;;;5067617;28;20536;-48
2023/10/10 02:54:34;;;;;;;13.98;5.72;;;12.40;99.90;;;;;;5058820;28;20036;-51
2023/10/10 02:59:59;;;;;;;11.57;5.85;;;12.30;99.90;;;;;;5069426;28;20024;-49
2023/10/10 03:02:41;;;;;;;12.05;6.50;;;12.30;99.90;;;;;;5058647;28;20078;-48
2023/10/10 03:05:14;;;;;;;12.35;5.57;;;12.30;99.90;;;;;;5063974;28;20078;-53
2023/10/10 03:07:42;;;;;;;12.40;6.22;;;12.20;99.90;;;;;;5065914;28;20132;-54
2023/10/10 03:12:43;;;;;;;11.15;6.28;;;12.10;99.90;;;;;;5071035;28;20028;-52
2023/10/10 03:15:28;;;;;;;12.90;6.00;;;12.10;99.90;;;;;;5069950;28;20393;-52
2023/10/10 03:26:34;;;;;;;15.20;7.10;;;11.90;99.90;;;;;;5057325;28;20385;-49
2023/10/10 05:25:15;;;;;;;11.70;5.22;;;12.00;99.90;;;;;;5053542;28;20382;-55
2023/10/10 05:27:43;;;;;;;12.30;4.80;;;11.90;99.90;;;;;;5053478;28;20025;-48
2023/10/10 05:30:27;;;;;;;13.82;5.70;;;11.70;99.90;;;;;;5053109;28;20516;-55
2023/10/10 05:33:04;;;;;;;9.68;4.75;;;11.70;99.90;;;;;;5053011;28;20051;-50
2023/10/10 05:35:37;;;;;;;10.98;5.20;;;11.60;99.90;;;;;;5052975;28;20033;-55
2023/10/10 05:38:09;;;;;;;22.05;9.55;;;11.50;99.90;;;;;;5053002;28;20450;-51
2023/10/10 05:40:38;;;;;;;14.20;8.38;;;11.40;99.90;;;;;;5052851;28;20029;-48
2023/10/10 05:43:09;;;;;;;11.82;5.50;;;11.40;99.90;;;;;;5052766;28;20032;-48
2023/10/10 05:45:37;;;;;;;10.35;5.65;;;11.30;99.90;;;;;;5052638;28;20042;-48
2023/10/10 05:48:05;;;;;;;9.15;5.07;;;11.30;99.90;;;;;;5053132;28;20021;-46
2023/10/10 05:50:32;;;;;;;13.00;5.97;;;11.30;99.90;;;;;;5053067;28;20033;-50
2023/10/10 05:53:00;;;;;;;13.25;6.32;;;11.30;99.90;;;;;;5052947;28;20025;-60
2023/10/10 05:55:33;;;;;;;16.42;7.13;;;11.40;99.90;;;;;;5052821;28;20513;-56
2023/10/10 05:58:02;;;;;;;12.55;6.00;;;11.40;99.90;;;;;;5052709;28;20099;-57
2023/10/10 06:00:28;;;;;;;17.85;7.95;;;11.50;99.90;;;;;;5052703;28;20511;-55
2023/10/10 06:02:54;;;;;;;19.13;8.02;;;11.50;99.90;;;;;;5052586;28;20048;-57
2023/10/10 06:05:20;;;;;;;20.08;8.25;;;11.50;99.90;;;;;;5052717;28;20492;-56
2023/10/10 06:07:48;;;;;;;18.63;9.00;;;11.50;99.90;;;;;;5052445;28;20025;-47
2023/10/10 06:10:17;;;;;;;21.20;9.55;;;11.50;99.90;;;;;;5052559;28;20056;-53
2023/10/10 06:12:47;;;;;;;15.70;7.70;;;11.60;99.90;;;;;;5052458;28;20687;-54
2023/10/10 06:15:17;;;;;;;16.85;8.55;;;11.60;99.90;;;;;;5052521;28;20048;-54
2023/10/10 06:18:05;;;;;;;16.33;8.15;;;11.60;99.90;;;;;;5034614;28;20074;-57
2023/10/10 06:20:31;;;;;;;16.08;8.82;;;11.60;99.90;;;;;;5052065;28;20057;-47
2023/10/10 06:22:57;;;;;;;12.50;7.78;;;11.60;99.90;;;;;;5051734;28;20060;-54
2023/10/10 06:25:23;;;;;;;15.13;7.70;;;11.50;99.90;;;;;;5052042;28;20056;-53
2023/10/10 06:27:54;;;;;;;14.02;6.82;;;11.60;99.90;;;;;;5052424;28;20036;-57
2023/10/10 06:30:21;;;;;;;15.52;7.05;;;11.60;99.90;;;;;;5051760;28;20482;-55
2023/10/10 06:32:49;;;;;;;15.65;7.07;;;11.60;99.90;;;;;;5052101;28;20128;-57
2023/10/10 06:37:45;;;;;;;13.85;7.25;;;11.70;99.90;;;;;;5052464;28;20056;-57
2023/10/10 06:40:11;;;;;;;17.25;7.70;;;11.60;99.90;;;;;;5051733;28;20029;-46
2023/10/10 06:42:38;;;;;;;18.55;9.05;;;11.60;99.90;;;;;;5051796;28;20029;-46
2023/10/10 06:45:11;;;;;;;18.70;8.38;;;11.60;99.90;;;;;;5051719;28;20033;-45
2023/10/10 06:47:43;;;;;;;13.85;8.27;;;11.70;99.90;;;;;;5069618;28;20064;-59
2023/10/10 06:50:12;;;;;;;18.05;10.05;;;11.70;99.90;;;;;;5070842;28;20103;-57
2023/10/10 06:52:38;;;;;;;16.85;9.52;;;11.70;99.90;;;;;;5058426;28;20371;-53
2023/10/10 06:55:12;;;;;;;17.17;8.65;;;11.70;99.90;;;;;;5068788;28;20044;-55
2023/10/10 06:57:38;;;;;;;17.55;8.93;;;11.70;99.90;;;;;;5068505;28;20048;-56
2023/10/10 07:00:21;;;;;;;17.55;9.07;;;11.70;99.90;;;;;;5071376;28;20111;-57
2023/10/10 07:02:52;;;;;;;20.80;9.40;;;11.80;99.90;;;;;;5071278;28;20016;-57
2023/10/10 07:05:19;;;;;;;17.05;9.30;;;11.90;99.90;;;;;;5071413;28;20113;-48
2023/10/10 07:07:52;;;;;;;20.10;10.75;;;11.90;99.90;;;;;;5071280;28;20024;-51
2023/10/10 07:10:33;;;;;;;23.88;11.82;;;12.00;99.90;;;;;;5071317;28;20035;-53
2023/10/10 07:13:03;;;;;;;20.95;11.05;;;12.10;99.90;;;;;;5068125;28;20017;-51
2023/10/10 07:15:35;;;;;;;20.83;11.35;;;12.20;99.90;;;;;;5071261;28;20490;-51
2023/10/10 07:18:22;;;;;;;19.85;11.38;;;12.20;99.90;;;;;;5070896;28;20384;-54
2023/10/10 07:21:06;;;;;;;17.58;9.70;;;12.30;99.90;;;;;;5070848;28;20044;-59
2023/10/10 07:23:42;;;;;;;16.65;9.63;;;12.40;99.90;;;;;;5061196;28;20020;-56
2023/10/10 07:26:19;;;;;;;21.75;10.85;;;12.50;99.90;;;;;;5065941;28;20039;-52
2023/10/10 07:28:48;;;;;;;17.30;9.68;;;12.60;99.90;;;;;;5063902;28;20025;-49
2023/10/10 07:31:17;;;;;;;15.75;8.68;;;12.60;99.90;;;;;;5052648;28;20032;-48
2023/10/10 07:33:54;;;;;;;17.73;9.32;;;12.80;99.90;;;;;;5050485;28;20041;-53
2023/10/10 07:36:25;;;;;;;15.77;8.65;;;12.90;99.90;;;;;;5050995;28;20078;-53
2023/10/10 07:38:55;;;;;;;14.82;8.52;;;12.90;99.90;;;;;;5050830;28;20075;-48
2023/10/10 07:41:27;;;;;;;17.30;8.63;;;13.00;99.90;;;;;;5050828;28;20025;-52
2023/10/10 07:43:58;;;;;;;17.17;8.68;;;13.00;99.90;;;;;;5050297;28;20398;-49
2023/10/10 07:46:27;;;;;;;16.10;8.60;;;13.10;99.90;;;;;;5050927;28;20496;-49
2023/10/10 07:48:54;;;;;;;21.52;10.18;;;13.20;99.90;;;;;;5050580;28;20116;-51
2023/10/10 07:51:29;;;;;;;22.40;10.27;;;13.30;99.90;;;;;;5050649;28;20587;-57
2023/10/10 07:54:02;;;;;;;23.38;10.48;;;13.20;99.90;;;;;;5051289;28;20409;-54
2023/10/10 07:56:32;;;;;;;22.08;10.30;;;13.40;99.90;;;;;;5058398;28;20393;-52
2023/10/10 07:58:58;;;;;;;21.60;10.68;;;13.50;99.90;;;;;;5070156;28;20020;-55
2023/10/10 08:01:23;;;;;;;18.75;10.13;;;13.60;99.90;;;;;;5070220;28;20031;-52
2023/10/10 08:03:49;;;;;;;17.95;9.48;;;13.70;99.90;;;;;;5070604;28;20074;-50
2023/10/10 08:06:25;;;;;;;21.50;9.48;;;13.90;99.90;;;;;;5070254;28;20025;-50
2023/10/10 08:09:29;;;;;;;19.55;9.82;;;14.10;99.90;;;;;;5070122;28;20081;-52
2023/10/10 08:11:45;;;;;;;16.23;9.05;;;14.40;99.90;;;;;;5065792;28;20048;-49
2023/10/10 08:14:11;;;;;;;16.45;9.00;;;14.80;99.90;;;;;;5069727;28;20127;-51
2023/10/10 08:16:39;;;;;;;20.10;9.43;;;15.10;99.90;;;;;;5069644;28;20024;-58
2023/10/10 08:19:06;;;;;;;17.52;9.10;;;15.60;99.90;;;;;;5069215;28;20120;-57
2023/10/10 08:21:37;;;;;;;15.23;9.07;;;16.20;99.90;;;;;;5061603;28;20052;-54
2023/10/10 08:24:07;;;;;;;14.93;8.25;;;16.70;99.90;;;;;;5065803;28;20035;-47
2023/10/10 08:26:39;;;;;;;15.48;8.68;;;17.30;99.90;;;;;;5066329;28;20477;-51
2023/10/10 08:29:06;;;;;;;14.05;7.63;;;18.10;99.90;;;;;;5062869;28;20497;-48
2023/10/10 08:31:32;;;;;;;14.43;6.82;;;18.90;99.90;;;;;;5049124;28;20029;-57
2023/10/10 08:33:58;;;;;;;12.63;6.05;;;19.50;99.90;;;;;;5049125;28;20043;-49
2023/10/10 08:36:24;;;;;;;14.77;6.03;;;19.80;99.90;;;;;;5049549;28;20424;-52
2023/10/10 08:38:54;;;;;;;14.45;6.40;;;20.20;99.90;;;;;;5052498;28;20024;-47
2023/10/10 08:41:26;;;;;;;11.63;5.13;;;20.60;99.90;;;;;;5057927;28;20029;-46
2023/10/10 08:43:57;;;;;;;12.70;5.25;;;21.00;99.90;;;;;;5069379;28;20040;-46
2023/10/10 08:46:29;;;;;;;8.25;4.47;;;21.60;99.90;;;;;;5068835;28;20031;-53
2023/10/10 08:48:59;;;;;;;9.20;4.63;;;22.10;99.90;;;;;;5073197;28;20028;-46
2023/10/10 08:51:33;;;;;;;8.95;4.40;;;22.60;99.90;;;;;;5069362;28;20032;-55
2023/10/10 08:54:09;;;;;;;7.65;4.00;;;23.00;99.90;;;;;;5072852;28;20013;-55
2023/10/10 08:57:00;;;;;;;7.10;3.40;;;23.30;99.90;;;;;;5068466;28;20044;-52
2023/10/10 08:59:28;;;;;;;11.35;3.85;;;23.60;99.90;;;;;;5070711;28;20039;-51
2023/10/10 09:02:17;;;;;;;5.43;2.83;;;23.90;99.90;;;;;;5068924;28;20037;-54
2023/10/10 09:04:46;;;;;;;7.95;3.40;;;24.40;99.90;;;;;;5071837;28;20017;-57
2023/10/10 09:07:26;;;;;;;9.05;3.05;;;24.60;99.90;;;;;;5059150;28;20115;-56
2023/10/10 09:10:04;;;;;;;14.25;3.28;;;24.80;99.90;;;;;;5062469;28;20365;-53
2023/10/10 09:12:52;;;;;;;9.00;2.72;;;25.40;99.90;;;;;;5065040;28;20024;-52
2023/10/10 09:15:19;;;;;;;5.88;2.63;;;25.70;99.90;;;;;;5061706;28;20056;-56
2023/10/10 09:17:45;;;;;;;7.68;2.75;;;25.90;99.90;;;;;;5068780;28;20115;-51
2023/10/10 09:20:23;;;;;;;4.72;2.35;;;25.70;99.90;;;;;;5069461;28;20023;-56
2023/10/10 09:22:54;;;;;;;6.10;2.58;;;25.50;99.90;;;;;;5072651;28;20431;-49
2023/10/10 09:25:25;;;;;;;5.43;2.58;;;25.00;99.90;;;;;;5065203;28;20028;-52
2023/10/10 09:27:58;;;;;;;5.28;2.45;;;24.90;99.90;;;;;;5058412;28;20028;-51
2023/10/10 09:30:32;;;;;;;7.68;2.45;;;24.70;99.90;;;;;;5056442;28;20021;-48
2023/10/10 09:35:53;;;;;;;4.35;1.98;;;24.50;99.90;;;;;;5071995;28;20392;-51
2023/10/10 09:38:22;;;;;;;4.97;2.03;;;24.30;99.90;;;;;;5073077;28;20031;-47
2023/10/10 09:40:48;;;;;;;4.80;2.22;;;23.90;99.90;;;;;;5060862;28;20016;-47
2023/10/10 09:43:35;;;;;;;5.22;2.42;;;23.70;99.90;;;;;;5058191;28;20119;-51
2023/10/10 09:46:19;;;;;;;4.55;2.25;;;23.40;99.90;;;;;;5065526;28;20316;-51
2023/10/10 09:49:17;;;;;;;5.07;2.17;;;23.10;99.90;;;;;;5069985;28;20483;-48
2023/10/10 09:54:25;;;;;;;4.78;2.40;;;22.80;99.90;;;;;;5070190;28;20638;-47
2023/10/10 09:56:53;;;;;;;5.57;2.35;;;22.70;99.90;;;;;;5072440;28;20025;-52
2023/10/10 09:59:28;;;;;;;4.60;2.30;;;22.70;99.90;;;;;;5063384;28;20036;-47
2023/10/10 10:01:59;;;;;;;5.05;1.88;;;22.60;99.90;;;;;;5062123;28;20036;-51
2023/10/10 10:04:28;;;;;;;3.53;1.92;;;22.60;99.90;;;;;;5057923;28;20079;-50
2023/10/10 10:07:17;;;;;;;6.82;2.47;;;23.30;99.90;;;;;;5059228;28;20751;-53
2023/10/10 10:09:51;;;;;;;;;;;24.00;99.90;;;;;;5014427;28;20512;-47
2023/10/10 10:12:51;;;;;;;5.07;2.03;;;25.20;99.90;;;;;;5070084;28;19943;-46
2023/10/10 10:15:48;;;;;;;5.63;2.58;;;26.20;99.90;;;;;;5061645;28;20465;-45
2023/10/10 10:18:26;;;;;;;5.82;2.05;;;26.90;99.90;;;;;;5072062;28;20048;-45
2023/10/10 10:23:34;;;;;;;4.88;2.10;;;28.00;99.90;;;;;;5059891;28;20032;-50
2023/10/10 10:26:09;;;;;;;5.00;1.67;;;28.40;99.90;;;;;;5066016;28;20060;-50
2023/10/10 10:28:36;;;;;;;5.35;2.40;;;28.70;99.90;;;;;;5057060;28;20516;-49
2023/10/10 10:31:05;;;;;;;7.97;2.42;;;29.20;99.90;;;;;;5057159;28;20039;-46
2023/10/10 10:33:33;;;;;;;6.80;1.80;;;28.60;99.90;;;;;;5064225;28;20447;-45
2023/10/10 10:36:05;;;;;;;4.20;2.15;;;28.10;99.90;;;;;;5068778;28;20037;-51
2023/10/10 10:38:33;;;;;;;6.13;2.47;;;27.60;99.90;;;;;;5039252;28;20033;-45
2023/10/10 10:41:15;;;;;;;5.80;2.33;;;27.30;99.90;;;;;;5059794;28;20055;-55
2023/10/10 10:43:51;;;;;;;5.82;2.40;;;26.50;99.90;;;;;;5071513;28;20469;-54
2023/10/10 10:46:27;;;;;;;6.10;2.63;;;25.60;99.90;;;;;;5071101;28;20362;-45
2023/10/10 10:49:01;;;;;;;7.22;2.90;;;25.30;99.90;;;;;;5051821;28;20370;-49
2023/10/10 10:51:28;;;;;;;5.30;2.25;;;25.00;99.90;;;;;;5061023;28;20100;-56
2023/10/10 10:53:58;;;;;;;7.88;2.83;;;24.90;99.90;;;;;;5067559;28;20319;-55
2023/10/10 10:56:37;;;;;;;4.70;2.67;;;24.80;99.90;;;;;;5065771;28;20028;-52
2023/10/10 10:59:19;;;;;;;9.55;5.20;;;24.80;99.90;;;;;;5065397;28;20028;-54
2023/10/10 11:01:57;;;;;;;4.68;2.75;;;24.50;99.90;;;;;;5058399;28;20037;-50
2023/10/10 11:07:03;;;;;;;6.25;3.15;;;24.00;99.90;;;;;;5050653;28;20104;-49
2023/10/10 11:09:36;;;;;;;8.45;3.25;;;23.60;99.90;;;;;;5065519;28;20135;-48
2023/10/10 11:12:03;;;;;;;7.63;3.67;;;23.00;99.90;;;;;;5071074;28;20033;-54
2023/10/10 11:14:34;;;;;;;7.90;3.63;;;22.60;99.90;;;;;;5070704;28;20031;-56
2023/10/10 11:17:00;;;;;;;7.00;3.78;;;22.20;99.90;;;;;;5071455;28;20036;-59
2023/10/10 11:21:59;;;;;;;7.93;4.30;;;21.60;99.90;;;;;;5055469;28;20029;-57
2023/10/10 11:24:30;;;;;;;7.38;4.43;;;21.30;99.90;;;;;;5062722;28;20059;-44
2023/10/10 11:29:47;;;;;;;11.18;4.60;;;21.10;99.90;;;;;;5063458;28;20501;-46
2023/10/10 11:32:24;;;;;;;7.55;3.90;;;21.30;99.90;;;;;;5060371;28;20378;-45
2023/10/10 11:34:51;;;;;;;5.47;3.22;;;21.80;99.90;;;;;;5050702;28;20033;-50
2023/10/10 11:37:32;;;;;;;10.13;3.75;;;22.30;99.90;;;;;;5050703;28;20481;-47
2023/10/10 11:43:03;;;;;;;5.20;3.40;;;22.60;99.90;;;;;;5053230;28;20389;-54
2023/10/10 11:45:30;;;;;;;6.13;3.20;;;22.60;99.90;;;;;;5047185;28;20551;-50
2023/10/10 11:48:05;;;;;;;12.60;7.10;;;23.00;99.90;;;;;;5047833;28;20029;-53
2023/10/10 11:50:43;;;;;;;8.65;3.95;;;23.40;99.90;;;;;;5047300;28;20084;-52
2023/10/10 11:53:13;;;;;;;9.48;3.60;;;23.30;99.90;;;;;;5046631;28;20024;-44
2023/10/10 11:55:41;;;;;;;11.63;4.70;;;22.70;99.90;;;;;;5047752;28;20033;-46
2023/10/10 11:58:07;;;;;;;12.60;3.77;;;22.90;99.90;;;;;;5047002;28;20047;-51
2023/10/10 12:00:42;;;;;;;10.45;3.60;;;23.10;99.90;;;;;;5047651;28;20773;-46
2023/10/10 12:03:12;;;;;;;8.25;3.10;;;23.40;99.90;;;;;;5047299;28;20056;-44
2023/10/10 12:05:48;;;;;;;6.53;2.97;;;23.90;99.90;;;;;;5047593;28;20480;-44
2023/10/10 12:08:24;;;;;;;6.32;2.78;;;24.50;99.90;;;;;;5047266;28;20021;-54
2023/10/10 12:11:12;;;;;;;6.40;3.20;;;24.40;99.90;;;;;;5046299;28;20082;-45
2023/10/10 12:13:37;;;;;;;4.50;2.40;;;24.60;99.90;;;;;;5033035;28;20532;-44
2023/10/10 12:16:07;;;;;;;6.15;2.90;;;24.40;99.90;;;;;;5045529;28;20104;-53
2023/10/10 12:18:34;;;;;;;7.70;2.90;;;24.00;99.90;;;;;;5032891;28;20561;-56
2023/10/10 12:21:01;;;;;;;5.70;2.58;;;23.90;99.90;;;;;;5046265;28;20048;-53
2023/10/10 12:23:34;;;;;;;24.40;8.23;;;23.60;99.90;;;;;;5046943;28;20029;-51
2023/10/10 12:25:59;;;;;;;6.18;3.40;;;23.70;99.90;;;;;;5046755;28;20028;-47
2023/10/10 12:28:25;;;;;;;6.18;3.00;;;23.80;99.90;;;;;;5044986;28;20045;-44
2023/10/10 12:30:56;;;;;;;11.15;3.83;;;23.60;99.90;;;;;;5046902;28;20488;-53
2023/10/10 12:33:22;;;;;;;6.32;3.25;;;23.50;99.90;;;;;;5046204;28;20500;-49
2023/10/10 12:35:48;;;;;;;4.88;2.67;;;23.40;99.90;;;;;;5046450;28;20021;-54
2023/10/10 12:38:15;;;;;;;6.32;3.55;;;23.10;99.90;;;;;;5046491;28;20025;-49
2023/10/10 12:40:44;;;;;;;6.45;3.05;;;22.90;99.90;;;;;;5046358;28;20538;-51
2023/10/10 12:43:13;;;;;;;7.78;2.90;;;23.00;99.90;;;;;;5046669;28;20025;-55
2023/10/10 12:45:39;;;;;;;;;;;23.10;99.90;;;;;;5046830;28;20025;-49
2023/10/10 12:48:13;;;;;;;5.95;3.03;;;23.00;99.90;;;;;;5046487;28;19916;-58
2023/10/10 12:50:40;;;;;;;6.60;3.10;;;22.60;99.90;;;;;;5046760;28;20029;-53
2023/10/10 12:53:09;;;;;;;5.47;2.97;;;22.50;99.90;;;;;;5040167;28;20060;-44
2023/10/10 12:55:48;;;;;;;9.30;3.95;;;22.60;99.90;;;;;;5033238;28;20021;-45
2023/10/10 12:58:22;;;;;;;;;;;22.70;99.90;;;;;;5033405;28;20030;-49
2023/10/10 13:00:51;;;;;;;6.75;2.67;;;22.70;99.90;;;;;;5032654;28;19959;-47
2023/10/10 13:03:27;;;;;;;5.57;3.60;;;22.80;99.90;;;;;;5032859;28;20021;-49
2023/10/10 13:05:59;;;;;;;8.25;3.60;;;22.70;99.90;;;;;;5032932;28;20060;-47
2023/10/10 13:08:38;;;;;;;6.95;3.53;;;22.50;99.90;;;;;;5032938;28;20022;-50
2023/10/10 13:11:20;;;;;;;6.40;3.08;;;22.40;99.90;;;;;;5032701;28;20048;-45
2023/10/10 13:13:51;;;;;;;8.75;3.90;;;22.50;99.90;;;;;;5033028;28;20044;-54
2023/10/10 13:17:28;;;;;;;6.53;3.67;;;22.60;99.90;;;;;;5032706;28;20044;-52
2023/10/10 13:19:11;;;;;;;7.38;3.88;;;22.50;99.90;;;;;;5024080;28;20057;-52
2023/10/10 13:21:37;;;;;;;6.90;3.35;;;22.50;99.90;;;;;;5032496;28;20029;-59
2023/10/10 13:24:09;;;;;;;8.00;3.38;;;22.60;99.90;;;;;;5032831;28;20029;-53
2023/10/10 13:26:36;;;;;;;6.72;3.97;;;22.70;99.90;;;;;;5032468;28;20481;-49
2023/10/10 13:29:02;;;;;;;8.48;3.55;;;22.80;99.90;;;;;;5032392;28;20476;-48
2023/10/10 13:31:29;;;;;;;9.15;4.00;;;22.70;99.90;;;;;;5031395;28;20026;-53
2023/10/10 13:33:55;;;;;;;7.43;4.03;;;22.30;99.90;;;;;;5032362;28;20028;-56
2023/10/10 13:36:20;;;;;;;7.63;4.20;;;22.10;99.90;;;;;;5032878;28;20026;-54
2023/10/10 13:38:50;;;;;;;7.63;4.00;;;22.00;99.90;;;;;;5032143;28;20029;-45
2023/10/10 13:41:22;;;;;;;8.25;3.78;;;22.00;99.90;;;;;;5032337;28;20049;-52
2023/10/10 13:43:50;;;;;;;8.05;3.80;;;22.00;99.90;;;;;;5032358;28;20033;-56
2023/10/10 13:46:18;;;;;;;11.52;3.97;;;21.90;99.90;;;;;;5032345;28;20028;-44
2023/10/10 13:48:47;;;;;;;8.98;3.40;;;21.80;99.90;;;;;;5032305;28;20030;-44
2023/10/10 13:51:15;;;;;;;;;;;21.40;99.90;;;;;;5032437;28;20021;-49
2023/10/10 13:53:43;;;;;;;6.57;3.35;;;21.10;99.90;;;;;;5032296;28;19909;-48
2023/10/10 13:56:16;;;;;;;5.35;2.92;;;20.80;99.90;;;;;;5031970;28;20556;-53
2023/10/10 13:58:48;;;;;;;6.65;3.85;;;20.70;99.90;;;;;;5032083;28;20120;-46
2023/10/10 14:01:36;;;;;;;6.25;3.33;;;20.70;99.90;;;;;;5031708;28;20380;-49
2023/10/10 14:04:25;;;;;;;8.32;3.30;;;20.50;99.90;;;;;;5031445;28;20656;-45
2023/10/10 14:06:48;;;;;;;7.72;3.30;;;20.20;99.90;;;;;;5020487;28;20041;-46
2023/10/10 14:09:25;;;;;;;6.80;3.17;;;20.00;99.90;;;;;;5031534;28;20164;-47
2023/10/10 14:11:56;;;;;;;6.28;3.17;;;20.00;99.90;;;;;;5031885;28;20476;-50
2023/10/10 14:14:22;;;;;;;5.45;2.70;;;19.90;99.90;;;;;;5031608;28;20026;-50
2023/10/10 14:16:48;;;;;;;5.60;2.63;;;19.90;99.90;;;;;;5031917;28;20028;-49
2023/10/10 14:19:13;;;;;;;4.93;2.88;;;19.70;99.90;;;;;;5031618;28;20111;-45
2023/10/10 14:21:39;;;;;;;4.57;2.80;;;19.60;99.90;;;;;;5031312;28;20033;-46
2023/10/10 14:24:08;;;;;;;7.60;2.92;;;19.60;99.90;;;;;;5030431;28;20026;-53
2023/10/10 14:26:35;;;;;;;;;;;19.50;99.90;;;;;;5031941;28;20037;-43
2023/10/10 14:29:08;;;;;;;4.68;2.53;;;19.50;99.90;;;;;;5030041;28;20293;-41
2023/10/10 14:31:35;;;;;;;6.50;3.05;;;19.50;99.90;;;;;;5030557;28;20105;-51
2023/10/10 14:34:05;;;;;;;4.85;2.63;;;19.50;99.90;;;;;;5030014;28;20388;-48
2023/10/10 14:36:31;;;;;;;6.63;2.63;;;19.50;99.90;;;;;;5029929;28;20040;-42
2023/10/10 14:38:57;;;;;;;6.85;2.70;;;19.40;99.90;;;;;;5030848;28;20065;-45
2023/10/10 14:41:30;;;;;;;7.47;2.63;;;19.30;99.90;;;;;;5030817;28;20087;-48
2023/10/10 14:44:00;;;;;;;8.00;2.30;;;19.30;99.90;;;;;;5030876;28;20079;-52
2023/10/10 14:46:31;;;;;;;3.40;2.05;;;19.30;99.90;;;;;;5030845;28;20018;-45
2023/10/10 14:49:16;;;;;;;6.22;2.72;;;19.30;99.90;;;;;;5030282;28;20022;-41
2023/10/10 14:51:48;;;;;;;6.07;3.05;;;19.30;99.90;;;;;;5029115;28;20037;-52
2023/10/10 14:54:17;;;;;;;9.10;2.70;;;19.10;99.90;;;;;;5030245;28;20104;-46
2023/10/10 14:56:49;;;;;;;;;;;19.10;99.90;;;;;;5031052;28;20472;-48
2023/10/10 14:59:24;;;;;;;7.72;3.30;;;19.20;99.90;;;;;;5030407;28;19987;-42
2023/10/10 15:01:50;;;;;;;5.38;2.50;;;19.30;99.90;;;;;;5030694;28;20037;-47
2023/10/10 15:04:19;;;;;;;9.00;2.85;;;19.30;99.90;;;;;;5029953;28;20031;-49
2023/10/10 15:06:46;;;;;;;9.45;2.92;;;19.40;99.90;;;;;;5030451;28;20091;-47
2023/10/10 15:09:13;;;;;;;5.00;2.22;;;19.50;99.90;;;;;;5030568;28;20495;-47
2023/10/10 15:11:43;;;;;;;4.63;2.33;;;19.40;99.90;;;;;;5030355;28;20460;-46
2023/10/10 15:14:09;;;;;;;12.10;3.13;;;19.50;99.90;;;;;;5030242;28;20033;-45
2023/10/10 15:16:37;;;;;;;7.38;2.92;;;19.50;99.90;;;;;;5030124;28;20021;-54
2023/10/10 15:19:06;;;;;;;9.07;2.80;;;19.50;99.90;;;;;;5030203;28;20029;-50
2023/10/10 15:21:35;;;;;;;3.13;2.00;;;19.40;99.90;;;;;;5030320;28;20033;-48
2023/10/10 15:24:11;;;;;;;6.57;2.60;;;19.20;99.90;;;;;;5030307;28;20029;-51
2023/10/10 15:26:37;;;;;;;4.40;2.47;;;19.20;99.90;;;;;;5030031;28;20057;-53
2023/10/10 15:29:03;;;;;;;4.00;2.38;;;19.10;99.90;;;;;;5030124;28;20074;-52
2023/10/10 15:31:30;;;;;;;7.22;2.63;;;19.10;99.90;;;;;;5030073;28;20100;-42
2023/10/10 15:34:00;;;;;;;4.88;2.47;;;19.10;99.90;;;;;;5030162;28;20025;-47
2023/10/10 15:36:30;;;;;;;7.03;2.40;;;19.10;99.90;;;;;;5030103;28;20029;-49
2023/10/10 15:39:05;;;;;;;7.15;3.05;;;19.00;99.90;;;;;;5029818;28;20108;-47
2023/10/10 15:41:32;;;;;;;7.40;3.05;;;19.00;99.90;;;;;;5029741;28;20042;-43
2023/10/10 15:44:09;;;;;;;7.18;3.00;;;18.90;99.90;;;;;;5029624;28;20033;-45
2023/10/10 15:46:37;;;;;;;4.88;2.97;;;18.90;99.90;;;;;;5030026;28;20030;-45